Time;durP1;ratioP1;P1;durP2;ratioP2;P2;SDS_P1;SDS_P2;PMS_P1;PMS_P2;Temp;Humidity;BMP_temperature;BMP_pressure;BME280_temperature;BME280_humidity;BME280_pressure;Samples;Min_cycle;Max_cycle;Signal;HPM_P1;HPM_P2
2023/03/29 00:00:01;;;;;;;12.40;6.53;;;2.80;99.90;;;;;;2088547;28;20131;-69
2023/03/29 00:01:02;;;;;;;11.43;6.57;;;2.70;99.90;;;;;;2096145;28;20031;-67
2023/03/29 00:02:02;;;;;;;14.18;6.57;;;2.70;99.90;;;;;;2095215;28;20541;-67
2023/03/29 00:03:03;;;;;;;11.95;6.32;;;2.70;99.90;;;;;;2093755;28;20020;-67
2023/03/29 00:04:04;;;;;;;11.98;6.25;;;2.80;99.90;;;;;;2096781;28;20036;-67
2023/03/29 00:05:05;;;;;;;10.57;6.60;;;2.70;99.90;;;;;;2094439;28;20750;-68
2023/03/29 00:06:07;;;;;;;12.70;6.88;;;2.70;99.90;;;;;;2094822;28;20047;-68
2023/03/29 00:07:07;;;;;;;11.52;6.65;;;2.80;99.90;;;;;;2085490;28;20089;-68
2023/03/29 00:08:08;;;;;;;13.30;6.82;;;2.80;99.90;;;;;;2079583;28;20348;-68
2023/03/29 00:09:09;;;;;;;11.18;6.68;;;2.80;99.90;;;;;;2073788;28;20033;-68
2023/03/29 00:10:11;;;;;;;11.23;6.82;;;2.70;99.90;;;;;;2086513;28;20099;-68
2023/03/29 00:11:12;;;;;;;12.93;6.70;;;2.80;99.90;;;;;;2086466;28;20150;-67
2023/03/29 00:12:12;;;;;;;10.88;6.72;;;2.80;99.90;;;;;;2086282;28;20527;-68
2023/03/29 00:13:13;;;;;;;11.23;6.40;;;2.70;99.90;;;;;;2086007;28;20077;-68
2023/03/29 00:14:13;;;;;;;11.15;6.68;;;2.70;99.90;;;;;;2086047;28;20103;-68
2023/03/29 00:15:14;;;;;;;11.80;6.53;;;2.80;99.90;;;;;;2096828;28;20046;-68
2023/03/29 00:16:14;;;;;;;10.88;6.45;;;2.70;99.90;;;;;;2093954;28;20032;-68
2023/03/29 00:17:15;;;;;;;13.90;6.63;;;2.80;99.90;;;;;;2085318;28;20036;-76
2023/03/29 00:18:16;;;;;;;13.02;6.63;;;2.70;99.90;;;;;;2085292;28;20025;-76
2023/03/29 00:19:16;;;;;;;10.80;6.18;;;2.80;99.90;;;;;;2083963;28;20452;-77
2023/03/29 00:20:17;;;;;;;12.38;6.22;;;2.70;99.90;;;;;;2071664;28;20668;-76
2023/03/29 00:21:17;;;;;;;13.60;6.30;;;2.80;99.90;;;;;;2096812;28;20028;-76
2023/03/29 00:22:18;;;;;;;10.98;6.20;;;2.80;99.90;;;;;;2092415;28;20029;-77
2023/03/29 00:23:19;;;;;;;10.85;6.65;;;2.80;99.90;;;;;;2096472;28;20130;-77
2023/03/29 00:24:22;;;;;;;10.88;6.15;;;2.80;99.90;;;;;;2087335;28;20032;-77
2023/03/29 00:25:23;;;;;;;11.98;6.57;;;2.80;99.90;;;;;;2085603;28;20020;-77
2023/03/29 00:26:24;;;;;;;8.98;6.20;;;2.80;99.90;;;;;;2094247;28;20031;-76
2023/03/29 00:27:24;;;;;;;9.43;6.03;;;2.80;99.90;;;;;;2094156;28;20029;-76
2023/03/29 00:28:25;;;;;;;11.32;6.53;;;2.80;99.90;;;;;;2097163;28;20033;-76
2023/03/29 00:29:27;;;;;;;9.10;5.65;;;2.80;99.90;;;;;;2078390;28;20457;-77
2023/03/29 00:30:28;;;;;;;11.00;6.03;;;2.80;99.90;;;;;;2078569;28;20120;-78
2023/03/29 00:31:29;;;;;;;11.77;5.75;;;2.80;99.90;;;;;;2078215;28;20043;-75
2023/03/29 00:32:29;;;;;;;9.35;5.78;;;2.80;99.90;;;;;;2086031;28;20051;-76
2023/03/29 00:33:30;;;;;;;9.02;5.65;;;2.80;99.90;;;;;;2092899;28;20238;-74
2023/03/29 00:34:31;;;;;;;11.02;5.97;;;2.80;99.90;;;;;;2094675;28;20036;-76
2023/03/29 00:35:32;;;;;;;9.20;5.95;;;2.80;99.90;;;;;;2093835;28;20896;-77
2023/03/29 00:36:33;;;;;;;10.57;5.60;;;2.80;99.90;;;;;;2089601;28;20037;-77
2023/03/29 00:37:34;;;;;;;11.25;5.60;;;2.80;99.90;;;;;;2094232;28;20047;-77
2023/03/29 00:38:35;;;;;;;10.77;5.70;;;2.70;99.90;;;;;;2087068;28;20036;-78
2023/03/29 00:39:36;;;;;;;12.32;5.55;;;2.80;99.90;;;;;;2071001;28;20052;-77
2023/03/29 00:40:45;;;;;;;10.65;5.43;;;2.80;99.90;;;;;;2086243;28;20103;-77
2023/03/29 00:41:48;;;;;;;11.57;5.50;;;2.80;99.90;;;;;;2086273;28;20051;-77
2023/03/29 00:42:48;;;;;;;9.13;5.72;;;2.70;99.90;;;;;;2078339;28;20428;-77
2023/03/29 00:43:58;;;;;;;10.80;5.40;;;2.70;99.90;;;;;;2077766;28;20144;-77
2023/03/29 00:45:00;;;;;;;9.88;5.70;;;2.70;99.90;;;;;;2087821;28;20068;-77
2023/03/29 00:46:01;;;;;;;8.52;5.32;;;2.70;99.90;;;;;;2086380;28;20457;-75
2023/03/29 00:47:02;;;;;;;9.13;5.30;;;2.70;99.90;;;;;;2087522;28;20024;-77
2023/03/29 00:48:16;;;;;;;8.57;5.00;;;2.60;99.90;;;;;;2094116;28;20433;-77
2023/03/29 00:49:17;;;;;;;11.52;5.25;;;2.60;99.90;;;;;;2085165;28;20080;-76
2023/03/29 00:50:28;;;;;;;9.25;5.10;;;2.60;99.90;;;;;;2084889;28;20162;-77
2023/03/29 00:51:33;;;;;;;9.48;5.47;;;2.60;99.90;;;;;;2094235;28;20060;-77
2023/03/29 00:52:34;;;;;;;8.60;4.80;;;2.50;99.90;;;;;;2094529;28;20111;-77
2023/03/29 00:53:40;;;;;;;10.77;5.32;;;2.50;99.90;;;;;;2085435;28;20453;-76
2023/03/29 00:54:43;;;;;;;9.32;5.15;;;2.50;99.90;;;;;;2085952;28;20025;-77
2023/03/29 00:55:58;;;;;;;8.48;5.07;;;2.50;99.90;;;;;;2094344;28;20448;-76
2023/03/29 00:57:02;;;;;;;13.05;5.40;;;2.50;99.90;;;;;;2094126;28;20029;-76
2023/03/29 00:58:08;;;;;;;11.30;5.68;;;2.50;99.90;;;;;;2094093;28;20024;-77
2023/03/29 00:59:23;;;;;;;11.48;5.25;;;2.50;99.90;;;;;;2090026;28;20028;-76
2023/03/29 01:00:36;;;;;;;9.40;5.20;;;2.40;99.90;;;;;;2092936;28;20043;-76
2023/03/29 01:01:58;;;;;;;10.15;5.82;;;2.40;99.90;;;;;;2085024;28;20119;-76
2023/03/29 01:03:05;;;;;;;11.00;5.82;;;2.40;99.90;;;;;;2084410;28;20035;-76
2023/03/29 01:04:23;;;;;;;10.70;5.95;;;2.40;99.90;;;;;;2076126;28;20526;-76
2023/03/29 01:05:39;;;;;;;9.25;6.05;;;2.40;99.90;;;;;;2078223;28;20033;-76
2023/03/29 01:06:42;;;;;;;11.88;5.97;;;2.40;99.90;;;;;;2088903;28;20020;-76
2023/03/29 01:08:02;;;;;;;10.75;5.63;;;2.40;99.90;;;;;;2086052;28;20119;-76
2023/03/29 01:09:06;;;;;;;9.82;5.20;;;2.40;99.90;;;;;;2083995;28;20036;-76
2023/03/29 01:10:13;;;;;;;10.07;5.38;;;2.40;99.90;;;;;;2078414;28;20071;-77
2023/03/29 01:11:22;;;;;;;12.52;5.35;;;2.40;99.90;;;;;;2078060;28;20650;-77
2023/03/29 01:12:31;;;;;;;10.45;5.25;;;2.40;99.90;;;;;;2079297;28;20028;-77
2023/03/29 01:13:38;;;;;;;8.98;5.13;;;2.40;99.90;;;;;;2087666;28;20029;-77
2023/03/29 01:14:58;;;;;;;8.45;5.20;;;2.40;99.90;;;;;;2086584;28;20682;-77
2023/03/29 01:16:00;;;;;;;9.57;5.05;;;2.40;99.90;;;;;;2080408;28;20021;-76
2023/03/29 01:17:03;;;;;;;10.65;5.30;;;2.40;99.90;;;;;;2073824;28;20029;-77
2023/03/29 01:18:05;;;;;;;11.00;5.25;;;2.40;99.90;;;;;;2078268;28;20017;-77
2023/03/29 01:19:09;;;;;;;9.48;5.18;;;2.40;99.90;;;;;;2088011;28;20017;-75
2023/03/29 01:20:44;;;;;;;9.65;5.30;;;2.40;99.90;;;;;;2085277;28;20055;-75
2023/03/29 01:21:51;;;;;;;7.88;5.00;;;2.40;99.90;;;;;;2086102;28;20024;-77
2023/03/29 01:23:44;;;;;;;9.50;5.03;;;2.40;99.90;;;;;;2087772;28;20076;-75
2023/03/29 01:25:10;;;;;;;9.48;5.03;;;2.40;99.90;;;;;;2069683;28;20061;-76
2023/03/29 01:26:15;;;;;;;8.80;4.88;;;2.40;99.90;;;;;;2070149;28;20397;-76
2023/03/29 01:27:31;;;;;;;8.27;5.00;;;2.40;99.90;;;;;;2078037;28;20063;-75
2023/03/29 01:28:43;;;;;;;10.05;4.78;;;2.30;99.90;;;;;;2088637;28;20439;-75
2023/03/29 01:29:49;;;;;;;9.98;5.43;;;2.30;99.90;;;;;;2095247;28;20032;-75
2023/03/29 01:30:57;;;;;;;9.70;5.05;;;2.30;99.90;;;;;;2095477;28;20069;-75
2023/03/29 01:32:07;;;;;;;10.80;4.78;;;2.30;99.90;;;;;;2095034;28;20240;-75
2023/03/29 01:33:22;;;;;;;8.80;5.05;;;2.30;99.90;;;;;;2093479;28;20020;-75
2023/03/29 01:34:43;;;;;;;7.28;4.72;;;2.30;99.90;;;;;;2096184;28;20031;-77
2023/03/29 01:35:49;;;;;;;8.93;4.85;;;2.30;99.90;;;;;;2088062;28;20035;-77
2023/03/29 01:36:59;;;;;;;10.63;5.05;;;2.30;99.90;;;;;;2081995;28;20044;-76
2023/03/29 01:38:09;;;;;;;10.18;5.30;;;2.30;99.90;;;;;;2079274;28;20033;-76
2023/03/29 01:39:09;;;;;;;10.07;5.03;;;2.30;99.90;;;;;;2087765;28;20036;-76
2023/03/29 01:40:11;;;;;;;10.80;5.22;;;2.30;99.90;;;;;;2086292;28;20032;-76
2023/03/29 01:41:11;;;;;;;10.07;5.03;;;2.30;99.90;;;;;;2086509;28;20415;-75
2023/03/29 01:42:41;;;;;;;8.43;4.85;;;2.30;99.90;;;;;;2096161;28;20038;-76
2023/03/29 01:43:57;;;;;;;12.93;5.38;;;2.40;99.90;;;;;;2057969;28;20141;-75
2023/03/29 01:45:11;;;;;;;13.88;5.68;;;2.50;99.90;;;;;;2070714;28;20116;-76
2023/03/29 01:46:33;;;;;;;9.77;5.50;;;2.50;99.90;;;;;;2073311;28;20120;-75
2023/03/29 01:47:54;;;;;;;9.60;5.25;;;2.40;99.90;;;;;;2086291;28;20032;-76
2023/03/29 01:49:09;;;;;;;9.00;4.97;;;2.40;99.90;;;;;;2086394;28;20473;-75
2023/03/29 01:50:27;;;;;;;9.05;5.30;;;2.40;99.90;;;;;;2080641;28;20080;-76
2023/03/29 01:51:39;;;;;;;10.85;5.00;;;2.40;99.90;;;;;;2086863;28;20358;-76
2023/03/29 01:52:51;;;;;;;7.55;4.45;;;2.30;99.90;;;;;;2087892;28;20036;-76
2023/03/29 01:54:11;;;;;;;8.23;5.22;;;2.30;99.90;;;;;;2088031;28;20052;-75
2023/03/29 01:55:17;;;;;;;8.18;5.18;;;2.30;99.90;;;;;;2093498;28;20436;-75
2023/03/29 01:56:22;;;;;;;10.10;5.10;;;2.30;99.90;;;;;;2083065;28;20682;-76
2023/03/29 01:57:25;;;;;;;9.55;4.90;;;2.30;99.90;;;;;;2080362;28;20033;-76
2023/03/29 01:58:32;;;;;;;10.65;5.40;;;2.20;99.90;;;;;;2087445;28;20071;-76
2023/03/29 01:59:37;;;;;;;10.88;5.40;;;2.20;99.90;;;;;;2087252;28;20483;-77
2023/03/29 02:00:40;;;;;;;11.32;5.93;;;2.20;99.90;;;;;;2079533;28;20039;-76
2023/03/29 02:01:47;;;;;;;10.15;5.50;;;2.20;99.90;;;;;;2079107;28;20507;-76
2023/03/29 02:02:52;;;;;;;13.10;5.88;;;2.20;99.90;;;;;;2088701;28;20356;-77
2023/03/29 02:03:58;;;;;;;12.65;5.72;;;2.20;99.90;;;;;;2089423;28;20059;-76
2023/03/29 02:04:59;;;;;;;11.00;5.60;;;2.20;99.90;;;;;;2084714;28;20511;-76
2023/03/29 02:06:01;;;;;;;12.77;5.57;;;2.20;99.90;;;;;;2085687;28;20029;-76
2023/03/29 02:07:06;;;;;;;10.73;5.43;;;2.20;99.90;;;;;;2086623;28;20031;-76
2023/03/29 02:08:10;;;;;;;10.38;5.30;;;2.20;99.90;;;;;;2083343;28;20049;-76
2023/03/29 02:09:11;;;;;;;8.90;5.20;;;2.20;99.90;;;;;;2074601;28;20081;-75
2023/03/29 02:10:15;;;;;;;9.02;5.10;;;2.20;99.90;;;;;;2086688;28;20595;-76
2023/03/29 02:11:17;;;;;;;7.75;4.82;;;2.20;99.90;;;;;;2096051;28;20451;-75
2023/03/29 02:12:18;;;;;;;12.48;6.35;;;2.20;99.90;;;;;;2089630;28;20434;-77
2023/03/29 02:13:20;;;;;;;11.93;5.80;;;2.20;99.90;;;;;;2098412;28;20516;-76
2023/03/29 02:14:24;;;;;;;10.65;5.80;;;2.20;99.90;;;;;;2097029;28;20012;-76
2023/03/29 02:15:25;;;;;;;10.10;5.85;;;2.20;99.90;;;;;;2096801;28;20035;-76
2023/03/29 02:16:26;;;;;;;10.25;5.63;;;2.20;99.90;;;;;;2096764;28;20036;-75
2023/03/29 02:17:27;;;;;;;12.50;5.90;;;2.20;99.90;;;;;;2085628;28;20119;-76
2023/03/29 02:18:29;;;;;;;8.65;5.05;;;2.20;99.90;;;;;;2077001;28;20401;-77
2023/03/29 02:19:29;;;;;;;10.63;5.50;;;2.20;99.90;;;;;;2069866;28;20037;-76
2023/03/29 02:20:37;;;;;;;15.13;6.00;;;2.20;99.90;;;;;;2078121;28;20128;-76
2023/03/29 02:21:52;;;;;;;11.15;6.22;;;2.20;99.90;;;;;;2078898;28;20037;-77
2023/03/29 02:22:52;;;;;;;11.32;5.97;;;2.20;99.90;;;;;;2085009;28;20111;-76
2023/03/29 02:23:56;;;;;;;10.68;5.68;;;2.20;99.90;;;;;;2081503;28;20523;-77
2023/03/29 02:25:00;;;;;;;14.55;5.88;;;2.30;99.90;;;;;;2088842;28;20084;-76
2023/03/29 02:26:02;;;;;;;9.70;5.88;;;2.30;99.90;;;;;;2080419;28;20779;-77
2023/03/29 02:27:03;;;;;;;9.68;5.68;;;2.30;99.90;;;;;;2087900;28;20127;-77
2023/03/29 02:28:05;;;;;;;12.00;5.70;;;2.30;99.90;;;;;;2079218;28;20114;-76
2023/03/29 02:29:06;;;;;;;9.70;5.35;;;2.30;99.90;;;;;;2085129;28;20098;-75
2023/03/29 02:30:09;;;;;;;8.65;5.20;;;2.30;99.90;;;;;;2078944;28;20157;-75
2023/03/29 02:31:41;;;;;;;11.13;5.22;;;2.30;99.90;;;;;;2087643;28;20032;-74
2023/03/29 02:32:47;;;;;;;11.55;5.40;;;2.30;99.90;;;;;;2088501;28;20029;-75
2023/03/29 02:34:03;;;;;;;11.75;6.15;;;2.30;99.90;;;;;;2086557;28;20025;-76
2023/03/29 02:35:11;;;;;;;10.18;6.00;;;2.40;99.90;;;;;;2081771;28;20036;-76
2023/03/29 02:36:21;;;;;;;10.70;6.20;;;2.40;99.90;;;;;;2089709;28;20035;-76
2023/03/29 02:37:25;;;;;;;11.77;5.72;;;2.40;99.90;;;;;;2080052;28;20021;-76
2023/03/29 02:38:30;;;;;;;12.13;5.80;;;2.30;99.90;;;;;;2077565;28;20048;-76
2023/03/29 02:39:33;;;;;;;9.95;5.50;;;2.30;99.90;;;;;;2082908;28;20083;-75
2023/03/29 02:40:36;;;;;;;11.98;6.03;;;2.40;99.90;;;;;;2087991;28;20331;-76
2023/03/29 02:41:39;;;;;;;10.13;5.85;;;2.40;99.90;;;;;;2080226;28;20166;-76
2023/03/29 02:42:44;;;;;;;10.73;5.78;;;2.40;99.90;;;;;;2076606;28;20480;-75
2023/03/29 02:43:47;;;;;;;11.02;5.97;;;2.30;99.90;;;;;;2087320;28;20107;-75
2023/03/29 02:44:52;;;;;;;10.52;5.80;;;2.40;99.90;;;;;;2080690;28;20025;-75
2023/03/29 02:45:54;;;;;;;12.40;5.95;;;2.40;99.90;;;;;;2083609;28;20099;-77
2023/03/29 02:47:04;;;;;;;13.38;6.00;;;2.40;99.90;;;;;;2086143;28;20025;-77
2023/03/29 02:48:10;;;;;;;10.57;6.05;;;2.40;99.90;;;;;;2079046;28;20277;-75
2023/03/29 02:49:11;;;;;;;11.70;6.13;;;2.40;99.90;;;;;;2087180;28;20062;-75
2023/03/29 02:50:12;;;;;;;12.25;5.45;;;2.40;99.90;;;;;;2086585;28;20131;-75
2023/03/29 02:51:25;;;;;;;10.82;5.88;;;2.40;99.90;;;;;;2076517;28;20049;-75
2023/03/29 02:52:33;;;;;;;10.98;5.88;;;2.40;99.90;;;;;;2084979;28;20120;-76
2023/03/29 02:53:42;;;;;;;9.75;5.75;;;2.40;99.90;;;;;;2082774;28;20353;-76
2023/03/29 02:54:47;;;;;;;10.45;5.88;;;2.40;99.90;;;;;;2078934;28;20029;-75
2023/03/29 02:55:47;;;;;;;10.57;6.00;;;2.50;99.90;;;;;;2078336;28;20319;-74
2023/03/29 02:56:57;;;;;;;9.95;5.63;;;2.50;99.90;;;;;;2088562;28;20676;-74
2023/03/29 02:57:57;;;;;;;9.77;5.82;;;2.50;99.90;;;;;;2091505;28;20028;-74
2023/03/29 02:58:58;;;;;;;7.47;5.25;;;2.50;99.90;;;;;;2098007;28;20055;-77
2023/03/29 02:59:59;;;;;;;9.15;5.18;;;2.50;99.90;;;;;;2096157;28;20020;-77
2023/03/29 03:01:01;;;;;;;11.23;6.05;;;2.50;99.90;;;;;;2096399;28;20068;-76
2023/03/29 03:02:02;;;;;;;10.90;5.65;;;2.50;99.90;;;;;;2086771;28;20123;-75
2023/03/29 03:03:06;;;;;;;11.05;5.65;;;2.50;99.90;;;;;;2078573;28;20067;-76
2023/03/29 03:04:11;;;;;;;9.80;5.80;;;2.50;99.90;;;;;;2087205;28;20114;-76
2023/03/29 03:05:11;;;;;;;9.63;5.47;;;2.50;99.90;;;;;;2086569;28;20021;-76
2023/03/29 03:06:12;;;;;;;10.77;5.85;;;2.50;99.90;;;;;;2078468;28;20462;-76
2023/03/29 03:07:13;;;;;;;10.40;5.60;;;2.60;99.90;;;;;;2078857;28;20025;-75
2023/03/29 03:08:14;;;;;;;11.27;5.90;;;2.50;99.90;;;;;;2078902;28;20348;-76
2023/03/29 03:09:15;;;;;;;11.07;5.70;;;2.50;99.90;;;;;;2083079;28;20020;-76
2023/03/29 03:10:18;;;;;;;12.30;5.80;;;2.50;99.90;;;;;;2077459;28;20029;-76
2023/03/29 03:11:18;;;;;;;11.27;5.80;;;2.50;99.90;;;;;;2077766;28;20017;-75
2023/03/29 03:12:20;;;;;;;10.63;5.85;;;2.50;99.90;;;;;;2088974;28;20116;-77
2023/03/29 03:13:20;;;;;;;12.75;6.07;;;2.50;99.90;;;;;;2087316;28;20080;-76
2023/03/29 03:14:21;;;;;;;13.20;6.07;;;2.60;99.90;;;;;;2078790;28;20036;-76
2023/03/29 03:15:23;;;;;;;11.63;6.00;;;2.50;99.90;;;;;;2078844;28;20078;-75
2023/03/29 03:16:23;;;;;;;11.63;5.82;;;2.60;99.90;;;;;;2074450;28;20471;-76
2023/03/29 03:17:24;;;;;;;11.43;6.07;;;2.60;99.90;;;;;;2087238;28;20033;-76
2023/03/29 03:18:24;;;;;;;12.15;5.85;;;2.60;99.90;;;;;;2080294;28;20185;-75
2023/03/29 03:19:25;;;;;;;16.08;5.93;;;2.60;99.90;;;;;;2085933;28;20315;-76
2023/03/29 03:20:25;;;;;;;11.98;5.60;;;2.60;99.90;;;;;;2082505;28;20115;-76
2023/03/29 03:21:29;;;;;;;11.35;5.75;;;2.60;99.90;;;;;;2081379;28;20379;-76
2023/03/29 03:22:31;;;;;;;9.68;5.25;;;2.60;99.90;;;;;;2087629;28;20029;-77
2023/03/29 03:23:32;;;;;;;12.57;6.10;;;2.60;99.90;;;;;;2080963;28;20503;-76
2023/03/29 03:24:34;;;;;;;9.50;5.32;;;2.60;99.90;;;;;;2078854;28;20052;-77
2023/03/29 03:25:34;;;;;;;11.45;5.60;;;2.60;99.90;;;;;;2076755;28;20060;-76
2023/03/29 03:26:37;;;;;;;10.68;5.95;;;2.60;99.90;;;;;;2080783;28;20033;-76
2023/03/29 03:27:40;;;;;;;11.25;6.45;;;2.60;99.90;;;;;;2075675;28;20025;-77
2023/03/29 03:28:41;;;;;;;12.32;6.40;;;2.60;99.90;;;;;;2085991;28;20040;-77
2023/03/29 03:29:46;;;;;;;11.00;6.10;;;2.50;99.90;;;;;;2085726;28;20052;-77
2023/03/29 03:31:12;;;;;;;14.43;6.88;;;2.50;99.90;;;;;;2087990;28;20034;-76
2023/03/29 03:32:43;;;;;;;12.90;5.90;;;2.50;99.90;;;;;;2086176;28;20512;-76
2023/03/29 03:34:10;;;;;;;11.25;5.68;;;2.50;99.90;;;;;;2084878;28;20034;-76
2023/03/29 03:35:18;;;;;;;11.55;6.00;;;2.60;99.90;;;;;;2086480;28;20055;-76
2023/03/29 03:36:24;;;;;;;12.60;5.93;;;2.50;99.90;;;;;;2086207;28;20112;-77
2023/03/29 03:37:26;;;;;;;11.73;6.07;;;2.50;99.90;;;;;;2078680;28;20024;-77
2023/03/29 03:38:32;;;;;;;10.77;6.07;;;2.50;99.90;;;;;;2077474;28;20040;-76
2023/03/29 03:39:34;;;;;;;12.43;5.85;;;2.50;99.90;;;;;;2086719;28;20025;-75
2023/03/29 03:40:37;;;;;;;11.55;5.95;;;2.50;99.90;;;;;;2079679;28;20041;-75
2023/03/29 03:41:38;;;;;;;11.57;6.60;;;2.50;99.90;;;;;;2088788;28;20155;-78
2023/03/29 03:42:40;;;;;;;11.50;5.97;;;2.50;99.90;;;;;;2087080;28;20149;-77
2023/03/29 03:43:42;;;;;;;11.43;5.80;;;2.50;99.90;;;;;;2095336;28;20044;-76
2023/03/29 03:44:43;;;;;;;11.10;6.10;;;2.50;99.90;;;;;;2078931;28;20091;-77
2023/03/29 03:46:02;;;;;;;11.35;5.80;;;2.50;99.90;;;;;;2083819;28;20037;-75
2023/03/29 03:47:04;;;;;;;12.55;5.97;;;2.50;99.90;;;;;;2084207;28;20036;-76
2023/03/29 03:48:06;;;;;;;11.63;5.63;;;2.50;99.90;;;;;;2076435;28;20542;-76
2023/03/29 03:49:31;;;;;;;12.23;6.03;;;2.50;99.90;;;;;;2070797;28;20579;-76
2023/03/29 03:50:32;;;;;;;11.98;6.30;;;2.40;99.90;;;;;;2083172;28;20037;-76
2023/03/29 03:51:33;;;;;;;11.88;6.22;;;2.40;99.90;;;;;;2081063;28;20032;-76
2023/03/29 03:52:33;;;;;;;10.15;5.70;;;2.40;99.90;;;;;;2079123;28;20060;-76
2023/03/29 03:53:35;;;;;;;11.20;6.28;;;2.40;99.90;;;;;;2077278;28;20063;-76
2023/03/29 03:55:04;;;;;;;10.73;6.25;;;2.50;99.90;;;;;;2077363;28;20542;-76
2023/03/29 03:56:19;;;;;;;13.27;5.95;;;2.40;99.90;;;;;;2086479;28;20028;-76
2023/03/29 03:57:43;;;;;;;12.52;6.07;;;2.40;99.90;;;;;;2050251;28;20066;-75
2023/03/29 03:58:47;;;;;;;11.93;5.95;;;2.40;99.90;;;;;;2082565;28;20036;-77
2023/03/29 03:59:50;;;;;;;11.35;6.22;;;2.40;99.90;;;;;;2075726;28;20111;-77
2023/03/29 04:01:00;;;;;;;15.13;6.57;;;2.40;99.90;;;;;;2077036;28;20036;-77
2023/03/29 04:02:11;;;;;;;14.70;6.53;;;2.40;99.90;;;;;;2073686;28;20061;-77
2023/03/29 04:03:12;;;;;;;15.70;6.75;;;2.50;99.90;;;;;;2086676;28;20021;-78
2023/03/29 04:04:15;;;;;;;15.63;6.15;;;2.50;99.90;;;;;;2078514;28;20029;-78
2023/03/29 04:05:28;;;;;;;13.57;6.43;;;2.50;99.90;;;;;;2074861;28;20446;-78
2023/03/29 04:06:30;;;;;;;11.30;6.32;;;2.50;99.90;;;;;;2078183;28;20040;-76
2023/03/29 04:07:49;;;;;;;12.52;6.38;;;2.50;99.90;;;;;;2090982;28;20416;-77
2023/03/29 04:08:53;;;;;;;15.38;6.55;;;2.50;99.90;;;;;;2091687;28;20036;-75
2023/03/29 04:10:05;;;;;;;;;;;2.60;99.90;;;;;;2083026;28;20025;-77
2023/03/29 04:11:32;;;;;;;15.75;6.40;;;2.60;99.90;;;;;;2081164;28;19912;-76
2023/03/29 04:12:33;;;;;;;14.50;6.95;;;2.60;99.90;;;;;;2088195;28;20024;-75
2023/03/29 04:13:34;;;;;;;13.90;6.88;;;2.60;99.90;;;;;;2078592;28;20545;-76
2023/03/29 04:14:55;;;;;;;13.20;6.50;;;2.60;99.90;;;;;;2086708;28;20554;-76
2023/03/29 04:15:57;;;;;;;12.35;6.45;;;2.50;99.90;;;;;;2095874;28;20734;-76
2023/03/29 04:16:58;;;;;;;15.68;6.70;;;2.50;99.90;;;;;;2095852;28;20047;-73
2023/03/29 04:18:17;;;;;;;13.25;6.70;;;2.50;99.90;;;;;;2095682;28;20127;-73
2023/03/29 04:19:21;;;;;;;12.57;6.80;;;2.50;99.90;;;;;;2078744;28;20025;-72
2023/03/29 04:20:23;;;;;;;13.98;6.95;;;2.50;99.90;;;;;;2078522;28;20045;-73
2023/03/29 04:21:24;;;;;;;18.30;7.10;;;2.40;99.90;;;;;;2077953;28;20075;-72
2023/03/29 04:22:24;;;;;;;14.20;7.38;;;2.50;99.90;;;;;;2081297;28;20511;-72
2023/03/29 04:23:25;;;;;;;13.60;7.22;;;2.50;99.90;;;;;;2084012;28;20025;-72
2023/03/29 04:24:26;;;;;;;13.38;6.85;;;2.40;99.90;;;;;;2085932;28;20688;-72
2023/03/29 04:25:54;;;;;;;12.30;6.95;;;2.40;99.90;;;;;;2087185;28;20039;-73
2023/03/29 04:27:18;;;;;;;15.00;7.20;;;2.40;99.90;;;;;;2078362;28;20041;-72
2023/03/29 04:28:19;;;;;;;16.60;7.18;;;2.40;99.90;;;;;;2081245;28;20025;-72
2023/03/29 04:29:38;;;;;;;12.25;6.72;;;2.50;99.90;;;;;;2086649;28;20063;-73
2023/03/29 04:30:51;;;;;;;14.32;6.93;;;2.50;99.90;;;;;;2081936;28;20056;-68
2023/03/29 04:32:14;;;;;;;13.43;6.88;;;2.50;99.90;;;;;;2085083;28;20105;-68
2023/03/29 04:33:34;;;;;;;15.15;7.20;;;2.50;99.90;;;;;;2082050;28;20025;-73
2023/03/29 04:34:35;;;;;;;17.13;7.95;;;2.50;99.90;;;;;;2082232;28;20119;-67
2023/03/29 04:35:38;;;;;;;13.35;7.80;;;2.50;99.90;;;;;;2079638;28;20179;-67
2023/03/29 04:36:42;;;;;;;15.13;7.68;;;2.50;99.90;;;;;;2075534;28;20025;-67
2023/03/29 04:37:53;;;;;;;17.40;7.80;;;2.50;99.90;;;;;;2080961;28;20501;-68
2023/03/29 04:38:54;;;;;;;17.88;8.10;;;2.50;99.90;;;;;;2077890;28;20516;-67
2023/03/29 04:39:56;;;;;;;16.13;8.10;;;2.50;99.90;;;;;;2074719;28;20021;-67
2023/03/29 04:40:59;;;;;;;13.43;7.88;;;2.50;99.90;;;;;;2078231;28;20302;-66
2023/03/29 04:42:28;;;;;;;15.15;7.70;;;2.50;99.90;;;;;;2081638;28;20196;-68
2023/03/29 04:43:29;;;;;;;16.55;8.30;;;2.50;99.90;;;;;;2071740;28;20045;-68
2023/03/29 04:44:42;;;;;;;17.52;8.07;;;2.50;99.90;;;;;;2079260;28;20040;-66
2023/03/29 04:45:44;;;;;;;15.85;8.48;;;2.50;99.90;;;;;;2073312;28;20168;-67
2023/03/29 04:47:01;;;;;;;23.70;8.27;;;2.50;99.90;;;;;;2075755;28;20029;-67
2023/03/29 04:48:21;;;;;;;16.77;8.13;;;2.60;99.90;;;;;;2083884;28;20519;-69
2023/03/29 04:49:21;;;;;;;17.70;8.45;;;2.60;99.90;;;;;;2085476;28;20299;-67
2023/03/29 04:50:25;;;;;;;19.05;8.57;;;2.60;99.90;;;;;;2077174;28;20037;-66
2023/03/29 04:51:26;;;;;;;17.08;8.15;;;2.60;99.90;;;;;;2088013;28;20033;-69
2023/03/29 04:52:31;;;;;;;16.65;8.25;;;2.60;99.90;;;;;;2078340;28;20041;-68
2023/03/29 04:53:33;;;;;;;15.77;7.85;;;2.70;99.90;;;;;;2086357;28;20492;-68
2023/03/29 04:54:36;;;;;;;14.10;8.07;;;2.60;99.90;;;;;;2081716;28;20033;-66
2023/03/29 04:56:06;;;;;;;16.05;7.97;;;2.70;99.90;;;;;;2070269;28;20087;-73
2023/03/29 04:57:30;;;;;;;20.83;9.15;;;2.70;99.90;;;;;;2081189;28;20144;-84
2023/03/29 04:58:41;;;;;;;19.20;9.75;;;2.70;99.90;;;;;;2081134;28;20027;-70
2023/03/29 04:59:41;;;;;;;17.95;8.98;;;2.80;99.90;;;;;;2085049;28;20037;-72
2023/03/29 05:01:02;;;;;;;20.33;9.32;;;2.80;99.90;;;;;;2081801;28;20032;-70
2023/03/29 05:02:08;;;;;;;32.42;18.05;;;2.80;99.90;;;;;;2093311;28;20088;-70
2023/03/29 05:03:13;;;;;;;32.42;17.55;;;2.80;99.90;;;;;;2085452;28;20033;-70
2023/03/29 05:04:20;;;;;;;32.97;17.83;;;2.80;99.90;;;;;;2068105;28;20034;-70
2023/03/29 05:05:38;;;;;;;35.80;19.88;;;2.80;99.90;;;;;;2079393;28;20032;-70
2023/03/29 05:06:40;;;;;;;56.28;31.38;;;2.90;99.90;;;;;;2077405;28;20022;-71
2023/03/29 05:07:43;;;;;;;84.75;45.58;;;2.90;99.90;;;;;;2077073;28;20033;-70
2023/03/29 05:08:44;;;;;;;114.35;63.22;;;2.90;99.90;;;;;;2065497;28;20477;-71
2023/03/29 05:09:59;;;;;;;68.57;38.50;;;2.90;99.90;;;;;;2070831;28;20092;-71
2023/03/29 05:11:00;;;;;;;68.20;37.90;;;2.90;99.90;;;;;;2069214;28;20575;-71
2023/03/29 05:12:02;;;;;;;55.65;30.60;;;2.90;99.90;;;;;;2073762;28;20026;-72
2023/03/29 05:13:11;;;;;;;46.83;27.15;;;3.00;99.90;;;;;;2080301;28;20029;-72
2023/03/29 05:14:13;;;;;;;43.50;25.85;;;3.00;99.90;;;;;;2075423;28;20021;-71
2023/03/29 05:15:14;;;;;;;37.75;22.25;;;3.00;99.90;;;;;;2086460;28;20020;-70
2023/03/29 05:16:15;;;;;;;29.27;15.93;;;3.00;99.90;;;;;;2078086;28;20392;-70
2023/03/29 05:17:16;;;;;;;23.05;14.43;;;3.00;99.90;;;;;;2073311;28;20349;-70
2023/03/29 05:18:16;;;;;;;21.48;12.82;;;3.10;99.90;;;;;;2074249;28;20028;-70
2023/03/29 05:19:20;;;;;;;20.08;10.98;;;3.10;99.90;;;;;;2087538;28;20074;-70
2023/03/29 05:20:21;;;;;;;22.52;10.70;;;3.10;99.90;;;;;;2082843;28;20021;-70
2023/03/29 05:21:22;;;;;;;23.13;12.15;;;3.10;99.90;;;;;;2076958;28;21163;-71
2023/03/29 05:22:25;;;;;;;29.95;13.73;;;3.10;99.90;;;;;;2086274;28;20032;-69
2023/03/29 05:23:26;;;;;;;29.85;13.77;;;3.10;99.90;;;;;;2078490;28;20045;-72
2023/03/29 05:24:45;;;;;;;19.33;10.88;;;3.10;99.90;;;;;;2081059;28;20077;-70
2023/03/29 05:25:52;;;;;;;17.65;9.30;;;3.20;99.90;;;;;;2086971;28;20017;-69
2023/03/29 05:26:52;;;;;;;23.67;9.25;;;3.20;99.90;;;;;;2086992;28;20032;-68
2023/03/29 05:27:54;;;;;;;22.98;10.43;;;3.20;99.90;;;;;;2089424;28;20036;-70
2023/03/29 05:28:55;;;;;;;18.70;9.57;;;3.20;99.90;;;;;;2077445;28;20026;-71
2023/03/29 05:29:56;;;;;;;19.77;9.43;;;3.30;99.90;;;;;;2097517;28;20538;-71
2023/03/29 05:31:04;;;;;;;15.25;8.60;;;3.20;99.90;;;;;;2085322;28;20090;-71
2023/03/29 05:32:05;;;;;;;17.98;8.52;;;3.30;99.90;;;;;;2076599;28;20408;-73
2023/03/29 05:33:07;;;;;;;18.10;9.77;;;3.40;99.90;;;;;;2087955;28;20499;-72
2023/03/29 05:34:08;;;;;;;20.50;10.20;;;3.40;99.90;;;;;;2081328;28;20534;-73
2023/03/29 05:35:15;;;;;;;19.00;8.65;;;3.40;99.90;;;;;;2073998;28;20491;-73
2023/03/29 05:36:18;;;;;;;19.42;9.25;;;3.40;99.90;;;;;;2068874;28;20119;-73
2023/03/29 05:37:21;;;;;;;21.30;9.25;;;3.40;99.90;;;;;;2084610;28;20021;-71
2023/03/29 05:38:28;;;;;;;16.98;9.27;;;3.40;99.90;;;;;;2086807;28;20863;-73
2023/03/29 05:39:30;;;;;;;18.05;9.05;;;3.50;99.90;;;;;;2083889;28;20099;-71
2023/03/29 05:40:31;;;;;;;20.65;9.70;;;3.50;99.90;;;;;;2074267;28;20037;-70
2023/03/29 05:41:59;;;;;;;25.30;10.85;;;3.50;99.90;;;;;;2079096;28;20033;-71
2023/03/29 05:43:06;;;;;;;19.50;9.63;;;3.60;99.90;;;;;;2098542;28;20498;-74
2023/03/29 05:44:07;;;;;;;19.88;9.82;;;3.60;99.90;;;;;;2082918;28;20105;-70
2023/03/29 05:45:08;;;;;;;21.88;9.57;;;3.60;99.90;;;;;;2087138;28;20613;-71